Time;durP1;ratioP1;P1;durP2;ratioP2;P2;SDS_P1;SDS_P2;PMS_P1;PMS_P2;Temp;Humidity;BMP_temperature;BMP_pressure;BME280_temperature;BME280_humidity;BME280_pressure;Samples;Min_cycle;Max_cycle;Signal;HPM_P1;HPM_P2
2022/05/26 00:02:00;;;;;;;6.12;3.30;;;;;;;;;;1691303;84;21052;-80
2022/05/26 00:04:27;;;;;;;4.67;2.75;;;;;;;;;;1695855;84;21030;-81
2022/05/26 00:06:55;;;;;;;4.42;2.90;;;;;;;;;;1695692;84;21587;-81
2022/05/26 00:09:23;;;;;;;4.28;2.85;;;;;;;;;;1693736;84;21133;-80
2022/05/26 00:11:49;;;;;;;4.80;2.80;;;;;;;;;;1691816;84;21060;-80
2022/05/26 00:14:17;;;;;;;6.05;2.80;;;;;;;;;;1695609;84;21090;-80
2022/05/26 00:16:44;;;;;;;4.80;2.90;;;;;;;;;;1696081;84;21083;-82
2022/05/26 00:19:11;;;;;;;4.05;2.70;;;;;;;;;;1687955;84;22166;-80
2022/05/26 00:21:37;;;;;;;5.50;2.83;;;;;;;;;;1686465;85;21566;-79
2022/05/26 00:24:03;;;;;;;4.37;2.90;;;;;;;;;;1686556;85;21035;-78
2022/05/26 00:26:29;;;;;;;4.42;2.72;;;;;;;;;;1686580;85;21015;-79
2022/05/26 00:28:55;;;;;;;4.20;2.75;;;;;;;;;;1686537;84;21112;-80
2022/05/26 00:31:21;;;;;;;4.47;2.98;;;;;;;;;;1686543;84;21608;-80
2022/05/26 00:33:48;;;;;;;5.30;3.12;;;;;;;;;;1686479;85;21600;-79
2022/05/26 00:36:14;;;;;;;4.25;2.72;;;;;;;;;;1686648;85;20994;-80
2022/05/26 00:38:41;;;;;;;4.20;2.90;;;;;;;;;;1686554;85;21808;-79
2022/05/26 00:41:08;;;;;;;5.90;3.08;;;;;;;;;;1686655;85;21086;-79
2022/05/26 00:43:34;;;;;;;5.25;2.47;;;;;;;;;;1663539;85;21116;-80
2022/05/26 00:46:02;;;;;;;4.80;2.60;;;;;;;;;;1686653;85;21039;-81
2022/05/26 00:48:28;;;;;;;7.08;2.75;;;;;;;;;;1686681;85;21045;-79
2022/05/26 00:50:55;;;;;;;3.75;2.72;;;;;;;;;;1687364;85;21015;-79
2022/05/26 00:53:25;;;;;;;4.95;2.65;;;;;;;;;;1687570;85;21057;-78
2022/05/26 00:55:56;;;;;;;4.62;2.50;;;;;;;;;;1687836;85;21077;-79
2022/05/26 00:58:28;;;;;;;4.90;2.67;;;;;;;;;;1686617;85;21063;-79
2022/05/26 01:03:56;;;;;;;3.77;2.75;;;;;;;;;;1723422;80;21194;-80
2022/05/26 01:06:24;;;;;;;4.70;2.80;;;;;;;;;;1710641;84;21500;-80
2022/05/26 01:08:52;;;;;;;5.12;2.67;;;;;;;;;;1711545;84;21096;-80
2022/05/26 01:11:18;;;;;;;4.37;2.60;;;;;;;;;;1712047;84;21049;-80
2022/05/26 01:13:48;;;;;;;5.22;2.50;;;;;;;;;;1706922;84;22112;-80
2022/05/26 01:16:26;;;;;;;4.80;2.70;;;;;;;;;;1705996;84;21084;-80
2022/05/26 01:18:54;;;;;;;4.22;2.52;;;;;;;;;;1710945;84;21159;-79
2022/05/26 01:21:32;;;;;;;5.22;2.60;;;;;;;;;;1706568;84;21092;-79
2022/05/26 01:24:03;;;;;;;2.87;2.27;;;;;;;;;;1708263;84;21112;-79
2022/05/26 01:26:38;;;;;;;5.50;2.35;;;;;;;;;;1711797;84;21085;-79
2022/05/26 01:29:06;;;;;;;5.00;2.40;;;;;;;;;;1710529;84;21072;-80
2022/05/26 01:31:37;;;;;;;4.92;2.70;;;;;;;;;;1710453;84;21084;-80
2022/05/26 01:34:21;;;;;;;4.78;2.47;;;;;;;;;;1711861;84;21010;-80
2022/05/26 01:36:58;;;;;;;4.72;2.30;;;;;;;;;;1707678;84;21121;-81
2022/05/26 01:39:30;;;;;;;2.92;2.02;;;;;;;;;;1704313;84;21033;-79
2022/05/26 01:41:57;;;;;;;3.60;2.60;;;;;;;;;;1704959;84;21631;-80
2022/05/26 01:44:34;;;;;;;7.78;2.62;;;;;;;;;;1706161;84;21092;-81
2022/05/26 01:47:02;;;;;;;4.17;2.47;;;;;;;;;;1705459;84;21096;-80
2022/05/26 01:49:39;;;;;;;3.65;2.35;;;;;;;;;;1708254;84;21042;-80
2022/05/26 01:52:09;;;;;;;3.67;2.15;;;;;;;;;;1708570;84;21037;-81
2022/05/26 01:54:37;;;;;;;8.08;2.50;;;;;;;;;;1706084;84;21562;-81
2022/05/26 01:57:10;;;;;;;5.03;2.67;;;;;;;;;;1705805;84;21603;-81
2022/05/26 01:59:38;;;;;;;5.03;2.27;;;;;;;;;;1708511;84;21033;-81
2022/05/26 02:02:05;;;;;;;4.60;2.37;;;;;;;;;;1710914;84;21089;-81
2022/05/26 02:04:35;;;;;;;7.12;2.40;;;;;;;;;;1704395;82;21105;-81
2022/05/26 02:07:03;;;;;;;9.45;2.35;;;;;;;;;;1672184;84;21084;-79
2022/05/26 02:09:29;;;;;;;5.47;2.22;;;;;;;;;;1695387;84;21060;-80
2022/05/26 02:12:00;;;;;;;3.72;2.20;;;;;;;;;;1696292;84;21086;-79
2022/05/26 02:14:28;;;;;;;3.52;2.40;;;;;;;;;;1696294;84;21624;-80
2022/05/26 02:16:59;;;;;;;3.80;2.50;;;;;;;;;;1696406;84;21518;-80
2022/05/26 02:19:28;;;;;;;5.05;2.47;;;;;;;;;;1696315;84;21048;-80
2022/05/26 02:22:11;;;;;;;6.47;2.90;;;;;;;;;;1696387;84;21056;-80
2022/05/26 02:24:38;;;;;;;4.50;2.58;;;;;;;;;;1677897;84;21053;-79
2022/05/26 02:27:05;;;;;;;4.83;2.17;;;;;;;;;;1696392;84;21600;-80
2022/05/26 02:32:15;;;;;;;3.70;2.33;;;;;;;;;;1696726;84;21565;-80
2022/05/26 02:34:41;;;;;;;3.70;2.50;;;;;;;;;;1696135;84;21091;-79
2022/05/26 02:37:08;;;;;;;5.83;2.40;;;;;;;;;;1696261;84;21082;-80
2022/05/26 02:39:35;;;;;;;4.05;2.25;;;;;;;;;;1696197;84;21092;-80
2022/05/26 02:42:01;;;;;;;5.10;2.42;;;;;;;;;;1696329;83;21543;-81
2022/05/26 02:44:27;;;;;;;6.97;2.55;;;;;;;;;;1696311;84;21559;-81
2022/05/26 02:47:12;;;;;;;6.25;2.40;;;;;;;;;;1696251;84;21119;-81
2022/05/26 02:49:56;;;;;;;4.25;2.70;;;;;;;;;;1675462;84;21046;-80
2022/05/26 02:52:24;;;;;;;6.50;2.60;;;;;;;;;;1696476;84;21557;-81
2022/05/26 02:55:04;;;;;;;5.60;2.90;;;;;;;;;;1695208;84;21048;-81
2022/05/26 02:57:35;;;;;;;3.45;2.30;;;;;;;;;;1696310;84;21132;-80
2022/05/26 03:00:09;;;;;;;3.58;2.20;;;;;;;;;;1684154;84;21068;-80
2022/05/26 03:02:40;;;;;;;4.00;2.25;;;;;;;;;;1696472;84;21015;-79
2022/05/26 03:05:11;;;;;;;4.50;2.50;;;;;;;;;;1703161;83;21656;-80
2022/05/26 03:07:38;;;;;;;3.95;2.40;;;;;;;;;;1676499;85;21544;-81
2022/05/26 03:10:06;;;;;;;3.98;2.45;;;;;;;;;;1694520;85;21047;-80
2022/05/26 03:12:33;;;;;;;5.30;2.52;;;;;;;;;;1675759;86;21547;-81
2022/05/26 03:15:00;;;;;;;5.22;2.60;;;;;;;;;;1697789;84;21013;-80
2022/05/26 03:17:26;;;;;;;5.05;2.67;;;;;;;;;;1697818;84;21070;-82
2022/05/26 03:19:52;;;;;;;5.17;2.40;;;;;;;;;;1698088;84;21054;-82
2022/05/26 03:22:18;;;;;;;3.15;2.58;;;;;;;;;;1698046;84;21034;-82
2022/05/26 03:24:44;;;;;;;5.40;3.05;;;;;;;;;;1697801;84;21040;-83
2022/05/26 03:27:10;;;;;;;4.20;2.60;;;;;;;;;;1698085;84;21488;-83
2022/05/26 03:29:37;;;;;;;6.15;2.60;;;;;;;;;;1698930;84;21058;-83
2022/05/26 03:32:03;;;;;;;8.25;2.70;;;;;;;;;;1698809;84;21060;-82
2022/05/26 03:42:44;;;;;;;6.47;2.98;;;;;;;;;;1675532;86;21100;-80
2022/05/26 03:45:11;;;;;;;5.10;2.65;;;;;;;;;;1697897;84;21069;-81
2022/05/26 03:47:39;;;;;;;6.50;2.90;;;;;;;;;;1697695;84;21096;-80
2022/05/26 03:50:08;;;;;;;6.55;2.95;;;;;;;;;;1697689;84;21037;-81
2022/05/26 03:52:34;;;;;;;4.85;2.98;;;;;;;;;;1697630;84;21100;-84
2022/05/26 03:55:00;;;;;;;4.22;2.45;;;;;;;;;;1697781;84;21567;-82
2022/05/26 03:57:27;;;;;;;4.72;2.67;;;;;;;;;;1696910;84;21096;-81
2022/05/26 03:59:53;;;;;;;7.00;2.80;;;;;;;;;;1696726;84;21095;-80
2022/05/26 04:02:19;;;;;;;8.45;2.85;;;;;;;;;;1697773;84;21592;-80
2022/05/26 04:04:46;;;;;;;4.47;2.62;;;;;;;;;;1697400;84;21086;-79
2022/05/26 04:07:12;;;;;;;6.95;2.52;;;;;;;;;;1697605;84;21124;-80
2022/05/26 04:09:40;;;;;;;4.10;2.80;;;;;;;;;;1697541;84;21072;-81
2022/05/26 04:12:08;;;;;;;5.35;3.00;;;;;;;;;;1697864;84;21074;-81
2022/05/26 04:14:35;;;;;;;5.40;3.27;;;;;;;;;;1698129;84;21084;-82
2022/05/26 04:17:01;;;;;;;4.17;2.80;;;;;;;;;;1697584;84;21690;-81
2022/05/26 04:19:28;;;;;;;4.53;2.72;;;;;;;;;;1697773;84;21592;-80
2022/05/26 04:24:39;;;;;;;3.95;2.60;;;;;;;;;;1697696;84;21527;-79
2022/05/26 04:27:05;;;;;;;3.55;2.60;;;;;;;;;;1698111;84;21004;-80
2022/05/26 04:29:33;;;;;;;5.33;2.80;;;;;;;;;;1697620;84;21069;-82
2022/05/26 04:32:00;;;;;;;6.80;2.70;;;;;;;;;;1675925;86;21060;-80
2022/05/26 04:34:26;;;;;;;6.37;2.62;;;;;;;;;;1697894;84;21041;-80
2022/05/26 04:36:51;;;;;;;4.05;2.58;;;;;;;;;;1697895;84;21126;-80
2022/05/26 04:39:17;;;;;;;3.30;2.30;;;;;;;;;;1698175;84;21105;-80
2022/05/26 04:41:43;;;;;;;4.22;2.55;;;;;;;;;;1698049;84;21593;-81
2022/05/26 04:44:10;;;;;;;4.15;2.67;;;;;;;;;;1697989;84;21021;-81
2022/05/26 04:46:38;;;;;;;5.45;3.60;;;;;;;;;;1697885;84;21528;-81
2022/05/26 04:49:04;;;;;;;3.75;2.42;;;;;;;;;;1698229;84;21098;-82
2022/05/26 04:51:31;;;;;;;4.67;2.77;;;;;;;;;;1697991;84;21060;-83
2022/05/26 04:53:57;;;;;;;4.55;3.02;;;;;;;;;;1697850;84;21519;-83
2022/05/26 04:56:25;;;;;;;5.17;2.50;;;;;;;;;;1692471;84;21041;-82
2022/05/26 04:58:51;;;;;;;4.85;2.80;;;;;;;;;;1697865;84;21536;-82
2022/05/26 05:01:19;;;;;;;5.45;2.60;;;;;;;;;;1697982;84;21058;-83
2022/05/26 05:03:46;;;;;;;8.10;2.87;;;;;;;;;;1675766;86;21136;-82
2022/05/26 05:06:13;;;;;;;5.90;2.67;;;;;;;;;;1672758;84;21083;-83
2022/05/26 05:08:41;;;;;;;4.92;2.85;;;;;;;;;;1668659;85;21069;-84
2022/05/26 05:11:08;;;;;;;5.50;2.67;;;;;;;;;;1668935;85;21008;-81
2022/05/26 05:13:34;;;;;;;9.58;2.70;;;;;;;;;;1667604;84;21090;-82
2022/05/26 05:16:01;;;;;;;6.72;2.90;;;;;;;;;;1642927;87;21534;-82
2022/05/26 05:18:28;;;;;;;3.77;2.70;;;;;;;;;;1673963;84;21536;-82
2022/05/26 05:20:55;;;;;;;5.95;3.05;;;;;;;;;;1643067;87;21071;-82
2022/05/26 05:23:21;;;;;;;7.17;3.00;;;;;;;;;;1642803;87;21025;-82
2022/05/26 05:25:48;;;;;;;6.08;2.90;;;;;;;;;;1664620;86;21072;-82
2022/05/26 05:28:16;;;;;;;4.30;3.15;;;;;;;;;;1670182;86;21039;-82
2022/05/26 05:30:50;;;;;;;5.55;2.98;;;;;;;;;;1676550;85;21023;-83
2022/05/26 05:33:22;;;;;;;4.53;2.95;;;;;;;;;;1685903;85;21050;-82
2022/05/26 05:35:53;;;;;;;4.15;3.00;;;;;;;;;;1685716;85;21089;-81
2022/05/26 05:38:19;;;;;;;4.17;2.75;;;;;;;;;;1671027;85;21013;-81
2022/05/26 05:40:48;;;;;;;4.95;3.20;;;;;;;;;;1671578;85;21112;-82
2022/05/26 05:43:14;;;;;;;6.75;3.33;;;;;;;;;;1684595;85;21028;-82
2022/05/26 05:45:40;;;;;;;4.60;3.05;;;;;;;;;;1677525;85;21561;-82
2022/05/26 05:48:07;;;;;;;7.72;3.35;;;;;;;;;;1643724;86;21021;-83
2022/05/26 05:50:33;;;;;;;4.40;3.12;;;;;;;;;;1628889;88;22174;-82
2022/05/26 05:52:59;;;;;;;7.08;3.17;;;;;;;;;;1689192;85;21576;-80
2022/05/26 05:55:25;;;;;;;5.90;3.40;;;;;;;;;;1690246;85;21096;-82
2022/05/26 05:57:52;;;;;;;6.67;4.12;;;;;;;;;;1689247;84;21085;-81
2022/05/26 06:00:18;;;;;;;5.67;3.62;;;;;;;;;;1690472;85;21064;-81
2022/05/26 06:02:44;;;;;;;5.58;4.05;;;;;;;;;;1683695;85;21070;-80
2022/05/26 06:05:10;;;;;;;6.22;3.67;;;;;;;;;;1649120;86;21099;-81
2022/05/26 06:07:39;;;;;;;6.95;4.03;;;;;;;;;;1655429;87;21581;-81
2022/05/26 06:10:05;;;;;;;8.00;4.70;;;;;;;;;;1635169;88;21047;-81
2022/05/26 06:12:33;;;;;;;4.25;3.00;;;;;;;;;;1644335;86;21124;-81
2022/05/26 06:15:00;;;;;;;4.53;2.90;;;;;;;;;;1655628;86;21077;-81
2022/05/26 06:17:26;;;;;;;3.87;2.80;;;;;;;;;;1694837;85;21092;-80
2022/05/26 06:19:52;;;;;;;3.35;2.30;;;;;;;;;;1694938;83;21611;-81
2022/05/26 06:22:19;;;;;;;4.92;2.75;;;;;;;;;;1694498;85;21097;-81
2022/05/26 06:24:45;;;;;;;2.55;2.00;;;;;;;;;;1694436;85;21026;-81
2022/05/26 06:29:57;;;;;;;3.10;2.15;;;;;;;;;;1693864;85;21140;-75
2022/05/26 06:37:55;;;;;;;2.12;1.80;;;;;;;;;;1693969;85;21162;-75
2022/05/26 06:40:21;;;;;;;2.35;1.85;;;;;;;;;;1694523;85;21485;-75
2022/05/26 06:42:47;;;;;;;2.17;1.80;;;;;;;;;;1694087;85;21037;-75
2022/05/26 06:45:15;;;;;;;2.10;1.75;;;;;;;;;;1694273;85;21120;-75
2022/05/26 06:47:41;;;;;;;3.08;1.85;;;;;;;;;;1694450;85;21040;-76
2022/05/26 06:50:08;;;;;;;2.00;1.80;;;;;;;;;;1694190;85;21084;-74
2022/05/26 06:52:34;;;;;;;1.70;1.60;;;;;;;;;;1694533;85;21017;-74
2022/05/26 06:55:01;;;;;;;2.02;1.82;;;;;;;;;;1694483;85;21056;-75
2022/05/26 06:57:27;;;;;;;1.80;1.65;;;;;;;;;;1694343;85;21104;-76
2022/05/26 06:59:55;;;;;;;1.70;1.60;;;;;;;;;;1694399;85;21551;-76
2022/05/26 07:02:22;;;;;;;2.70;1.50;;;;;;;;;;1694585;83;21076;-76
2022/05/26 07:04:48;;;;;;;2.17;1.92;;;;;;;;;;1694378;84;21092;-76
2022/05/26 07:07:14;;;;;;;2.08;1.80;;;;;;;;;;1694277;85;20998;-76
2022/05/26 07:09:41;;;;;;;1.82;1.62;;;;;;;;;;1694298;85;21092;-75
2022/05/26 07:12:08;;;;;;;1.98;1.55;;;;;;;;;;1694017;85;21064;-76
2022/05/26 07:14:34;;;;;;;1.90;1.70;;;;;;;;;;1694519;85;21075;-75
2022/05/26 07:17:01;;;;;;;3.50;1.75;;;;;;;;;;1694339;85;21053;-76
2022/05/26 07:19:28;;;;;;;2.12;1.85;;;;;;;;;;1694155;85;21622;-76
2022/05/26 07:21:54;;;;;;;2.40;1.80;;;;;;;;;;1694027;85;21045;-76
2022/05/26 07:24:21;;;;;;;3.92;1.80;;;;;;;;;;1694582;85;21037;-75
2022/05/26 07:26:48;;;;;;;1.87;1.62;;;;;;;;;;1694168;85;21144;-76
2022/05/26 07:29:14;;;;;;;2.33;1.95;;;;;;;;;;1694464;85;21088;-75
2022/05/26 07:31:41;;;;;;;2.77;2.12;;;;;;;;;;1694152;85;21080;-74
2022/05/26 07:34:07;;;;;;;2.75;1.90;;;;;;;;;;1694386;85;21021;-74
2022/05/26 07:42:04;;;;;;;2.35;2.00;;;;;;;;;;1673891;85;21046;-81
2022/05/26 07:44:32;;;;;;;2.58;2.10;;;;;;;;;;1695980;83;21041;-72
2022/05/26 07:46:58;;;;;;;2.92;2.37;;;;;;;;;;1697028;83;21040;-77
2022/05/26 07:49:24;;;;;;;3.00;2.30;;;;;;;;;;1693169;85;21561;-79
2022/05/26 07:51:50;;;;;;;2.75;2.20;;;;;;;;;;1694059;85;21117;-77
2022/05/26 07:54:16;;;;;;;2.58;2.00;;;;;;;;;;1694467;85;21069;-77
2022/05/26 07:56:42;;;;;;;4.12;2.10;;;;;;;;;;1694167;85;21556;-77
2022/05/26 07:59:09;;;;;;;2.40;2.00;;;;;;;;;;1695596;83;21069;-77
2022/05/26 08:01:36;;;;;;;2.70;2.00;;;;;;;;;;1694074;85;21120;-77
2022/05/26 08:04:08;;;;;;;2.83;2.20;;;;;;;;;;1694127;83;21069;-77
2022/05/26 08:06:34;;;;;;;4.20;2.25;;;;;;;;;;1676905;83;21089;-77
2022/05/26 08:09:00;;;;;;;3.50;2.30;;;;;;;;;;1710234;83;21053;-76
2022/05/26 08:11:26;;;;;;;3.00;2.50;;;;;;;;;;1693884;85;21053;-77
2022/05/26 08:13:53;;;;;;;3.50;2.12;;;;;;;;;;1693817;85;21473;-77
2022/05/26 08:16:19;;;;;;;2.15;1.95;;;;;;;;;;1694108;85;21038;-78
2022/05/26 08:18:45;;;;;;;2.45;2.05;;;;;;;;;;1694175;85;21095;-77
2022/05/26 08:21:12;;;;;;;3.33;2.30;;;;;;;;;;1694155;85;21058;-77
2022/05/26 08:23:39;;;;;;;2.55;2.15;;;;;;;;;;1694875;84;21157;-74
2022/05/26 08:26:04;;;;;;;2.40;1.98;;;;;;;;;;1698767;84;21485;-74
2022/05/26 08:28:33;;;;;;;1.80;1.70;;;;;;;;;;1694277;85;21101;-75
2022/05/26 08:31:00;;;;;;;3.52;2.17;;;;;;;;;;1694580;83;21084;-74
2022/05/26 08:33:28;;;;;;;2.40;2.05;;;;;;;;;;1693817;85;21054;-74
2022/05/26 08:36:02;;;;;;;2.15;1.80;;;;;;;;;;1695421;84;21499;-79
2022/05/26 08:38:29;;;;;;;2.83;2.02;;;;;;;;;;1700117;83;21108;-79
2022/05/26 08:40:56;;;;;;;2.47;1.70;;;;;;;;;;1700744;84;21151;-78
2022/05/26 08:43:24;;;;;;;2.10;1.80;;;;;;;;;;1700725;84;21559;-79
2022/05/26 08:45:51;;;;;;;2.83;1.80;;;;;;;;;;1700961;84;21049;-79
2022/05/26 08:48:31;;;;;;;2.08;1.70;;;;;;;;;;1701249;84;21099;-79
2022/05/26 08:50:57;;;;;;;2.05;1.70;;;;;;;;;;1699686;84;21103;-79
2022/05/26 08:53:26;;;;;;;2.67;2.00;;;;;;;;;;1701266;84;21017;-79
2022/05/26 08:55:52;;;;;;;2.37;2.17;;;;;;;;;;1701170;84;21084;-79
2022/05/26 08:58:20;;;;;;;1.82;1.62;;;;;;;;;;1672109;84;21017;-80
2022/05/26 09:00:48;;;;;;;2.25;1.90;;;;;;;;;;1702234;84;21076;-77
2022/05/26 09:03:25;;;;;;;2.22;1.60;;;;;;;;;;1702181;83;21088;-79
2022/05/26 09:05:53;;;;;;;3.67;1.85;;;;;;;;;;1701870;84;20990;-78
2022/05/26 09:13:53;;;;;;;1.60;1.50;;;;;;;;;;1729514;83;21084;-79
2022/05/26 09:16:19;;;;;;;2.37;1.57;;;;;;;;;;1721623;83;21048;-79
2022/05/26 09:18:48;;;;;;;2.75;1.60;;;;;;;;;;1670638;84;21025;-79
2022/05/26 09:21:21;;;;;;;2.70;1.65;;;;;;;;;;1693781;84;21079;-78
2022/05/26 09:23:47;;;;;;;1.70;1.57;;;;;;;;;;1698734;80;21061;-75
2022/05/26 09:26:17;;;;;;;1.70;1.47;;;;;;;;;;1699915;84;21092;-77
2022/05/26 09:28:51;;;;;;;3.35;1.60;;;;;;;;;;1699995;84;20998;-78
2022/05/26 09:31:31;;;;;;;2.83;1.60;;;;;;;;;;1700446;83;21060;-77
2022/05/26 09:36:14;;;;;;;1.85;1.57;;;;;;;;;;1805717;77;22871;-78
2022/05/26 09:38:43;;;;;;;4.08;1.60;;;;;;;;;;1766016;80;21087;-77
2022/05/26 09:41:11;;;;;;;2.27;1.60;;;;;;;;;;1766144;78;21037;-77
2022/05/26 09:43:37;;;;;;;1.60;1.50;;;;;;;;;;1761853;81;21044;-78
2022/05/26 09:46:06;;;;;;;2.08;1.77;;;;;;;;;;1761396;81;21064;-78
2022/05/26 09:48:33;;;;;;;1.80;1.62;;;;;;;;;;1761472;81;21052;-77
2022/05/26 09:51:14;;;;;;;1.87;1.60;;;;;;;;;;1761874;81;21080;-79
2022/05/26 09:53:41;;;;;;;1.70;1.60;;;;;;;;;;1761716;81;21053;-78
2022/05/26 09:56:08;;;;;;;2.33;1.60;;;;;;;;;;1761770;81;21072;-79
2022/05/26 09:58:37;;;;;;;2.22;1.50;;;;;;;;;;1761812;81;21492;-79
2022/05/26 10:01:27;;;;;;;1.72;1.60;;;;;;;;;;1761179;81;21013;-77
2022/05/26 10:04:07;;;;;;;1.90;1.77;;;;;;;;;;1729834;82;21591;-77
2022/05/26 10:06:38;;;;;;;2.08;1.75;;;;;;;;;;1723074;83;21083;-77
2022/05/26 10:09:24;;;;;;;3.65;2.12;;;;;;;;;;1688938;83;21044;-77
2022/05/26 10:11:55;;;;;;;1.75;1.60;;;;;;;;;;1721901;83;21552;-78
2022/05/26 10:14:26;;;;;;;2.37;1.90;;;;;;;;;;1723392;83;21055;-77
2022/05/26 10:17:00;;;;;;;1.67;1.57;;;;;;;;;;1728033;81;21059;-77
2022/05/26 10:19:34;;;;;;;2.62;1.57;;;;;;;;;;1696789;83;21083;-78
2022/05/26 10:22:08;;;;;;;3.00;1.62;;;;;;;;;;1727881;83;21134;-77
2022/05/26 10:24:52;;;;;;;2.85;1.65;;;;;;;;;;1728059;81;21072;-77
2022/05/26 10:27:25;;;;;;;2.00;1.70;;;;;;;;;;1728297;83;21043;-76
2022/05/26 10:30:11;;;;;;;2.65;2.00;;;;;;;;;;1728172;83;21051;-77
2022/05/26 10:32:57;;;;;;;3.55;1.90;;;;;;;;;;1728078;83;21023;-77
2022/05/26 10:35:27;;;;;;;2.50;1.70;;;;;;;;;;1723888;83;21543;-76
2022/05/26 10:38:12;;;;;;;1.70;1.60;;;;;;;;;;1720478;83;21028;-78
2022/05/26 10:40:41;;;;;;;5.05;2.08;;;;;;;;;;1715935;83;21056;-77
2022/05/26 10:43:12;;;;;;;4.37;1.50;;;;;;;;;;1716713;83;21044;-77
2022/05/26 10:45:40;;;;;;;6.00;1.70;;;;;;;;;;1712708;84;21029;-77
2022/05/26 10:48:09;;;;;;;2.58;1.50;;;;;;;;;;1717464;83;21104;-77
2022/05/26 10:50:48;;;;;;;2.12;1.50;;;;;;;;;;1714822;83;21058;-77
2022/05/26 10:53:16;;;;;;;1.60;1.50;;;;;;;;;;1714456;84;21005;-77
2022/05/26 10:55:47;;;;;;;1.60;1.50;;;;;;;;;;1718182;83;21606;-77
2022/05/26 10:58:26;;;;;;;3.60;1.50;;;;;;;;;;1720025;83;21107;-77
2022/05/26 11:00:55;;;;;;;3.37;1.72;;;;;;;;;;1719458;83;21083;-78
2022/05/26 11:03:23;;;;;;;2.22;1.60;;;;;;;;;;1718212;83;21005;-78
2022/05/26 11:05:56;;;;;;;2.58;1.52;;;;;;;;;;1714869;83;20978;-78
2022/05/26 11:08:30;;;;;;;4.25;1.55;;;;;;;;;;1714405;83;21064;-78
2022/05/26 11:10:58;;;;;;;3.55;1.70;;;;;;;;;;1717542;83;21294;-79
2022/05/26 11:13:29;;;;;;;2.22;1.42;;;;;;;;;;1715600;84;21063;-76
2022/05/26 11:18:48;;;;;;;3.80;1.70;;;;;;;;;;1682550;83;21267;-77
2022/05/26 11:21:19;;;;;;;2.85;1.62;;;;;;;;;;1716839;83;21528;-77
2022/05/26 11:23:45;;;;;;;2.40;1.55;;;;;;;;;;1714966;83;21020;-77
2022/05/26 11:26:19;;;;;;;1.72;1.50;;;;;;;;;;1717188;83;21016;-78
2022/05/26 11:28:52;;;;;;;1.75;1.42;;;;;;;;;;1720159;83;21021;-77
2022/05/26 11:37:01;;;;;;;2.77;1.52;;;;;;;;;;1717773;83;21067;-76
2022/05/26 11:39:31;;;;;;;2.62;1.60;;;;;;;;;;1714724;83;21587;-77
2022/05/26 11:41:58;;;;;;;3.15;1.70;;;;;;;;;;1682802;83;21088;-77
2022/05/26 11:44:41;;;;;;;2.72;1.50;;;;;;;;;;1718221;83;21481;-77
2022/05/26 11:47:15;;;;;;;5.10;1.70;;;;;;;;;;1719046;83;21032;-77
2022/05/26 11:49:46;;;;;;;3.77;1.50;;;;;;;;;;1714845;83;21098;-77
2022/05/26 11:52:31;;;;;;;3.12;1.50;;;;;;;;;;1641662;87;21050;-77
2022/05/26 11:55:02;;;;;;;2.80;1.30;;;;;;;;;;1683717;85;21137;-76
2022/05/26 11:57:32;;;;;;;2.55;1.55;;;;;;;;;;1641715;87;21093;-77
2022/05/26 12:00:19;;;;;;;1.57;1.47;;;;;;;;;;1684358;84;21071;-78
2022/05/26 12:02:52;;;;;;;3.72;1.80;;;;;;;;;;1703478;82;21114;-78
2022/05/26 12:05:32;;;;;;;2.70;1.60;;;;;;;;;;1716441;83;21054;-78
2022/05/26 12:07:59;;;;;;;9.08;1.70;;;;;;;;;;1719901;83;20987;-79
2022/05/26 12:10:28;;;;;;;2.70;1.70;;;;;;;;;;1719607;83;21082;-79
2022/05/26 12:13:02;;;;;;;3.98;1.87;;;;;;;;;;1717812;83;22204;-78
2022/05/26 12:15:29;;;;;;;1.75;1.62;;;;;;;;;;1701357;83;21066;-78
2022/05/26 12:17:58;;;;;;;1.70;1.60;;;;;;;;;;1711484;83;20965;-79
2022/05/26 12:20:27;;;;;;;3.22;1.65;;;;;;;;;;1710388;84;21088;-78
2022/05/26 12:22:56;;;;;;;2.40;1.70;;;;;;;;;;1710274;84;21005;-77
2022/05/26 12:25:28;;;;;;;3.00;1.85;;;;;;;;;;1710346;84;21147;-78
2022/05/26 12:27:56;;;;;;;2.15;1.62;;;;;;;;;;1710309;84;21056;-79
2022/05/26 12:30:35;;;;;;;4.60;1.60;;;;;;;;;;1710071;84;21045;-79
2022/05/26 12:33:04;;;;;;;3.08;1.65;;;;;;;;;;1710133;84;21139;-79
2022/05/26 12:35:35;;;;;;;3.33;1.50;;;;;;;;;;1696948;82;21370;-78
2022/05/26 12:38:23;;;;;;;1.87;1.50;;;;;;;;;;1677046;85;21022;-79
2022/05/26 12:40:51;;;;;;;6.47;1.72;;;;;;;;;;1704180;84;21064;-78
2022/05/26 12:43:21;;;;;;;2.45;1.82;;;;;;;;;;1704291;84;21092;-78
2022/05/26 12:45:56;;;;;;;3.65;1.70;;;;;;;;;;1704352;84;21128;-78
2022/05/26 12:48:24;;;;;;;2.12;1.60;;;;;;;;;;1650011;83;21204;-79
2022/05/26 12:50:52;;;;;;;4.42;1.75;;;;;;;;;;1712059;84;21131;-79
2022/05/26 12:53:20;;;;;;;2.00;1.80;;;;;;;;;;1712164;84;21072;-79
2022/05/26 12:55:48;;;;;;;2.37;1.50;;;;;;;;;;1712366;83;21028;-78
2022/05/26 12:58:19;;;;;;;3.27;1.87;;;;;;;;;;1715241;83;21084;-78
2022/05/26 13:00:46;;;;;;;2.50;1.80;;;;;;;;;;1716244;83;21362;-78
2022/05/26 13:03:14;;;;;;;2.10;1.90;;;;;;;;;;1714903;83;21092;-78
2022/05/26 13:05:43;;;;;;;2.87;1.72;;;;;;;;;;1706896;83;21010;-79
2022/05/26 13:08:16;;;;;;;2.47;1.65;;;;;;;;;;1705876;84;21025;-79
2022/05/26 13:10:42;;;;;;;2.45;1.70;;;;;;;;;;1693138;84;21076;-79
2022/05/26 13:13:13;;;;;;;3.27;1.98;;;;;;;;;;1704339;84;21622;-79
2022/05/26 13:15:40;;;;;;;2.67;1.90;;;;;;;;;;1674322;84;21611;-78
2022/05/26 13:18:08;;;;;;;3.83;1.57;;;;;;;;;;1705903;84;21049;-79
2022/05/26 13:20:35;;;;;;;2.85;1.77;;;;;;;;;;1710945;84;21076;-78
2022/05/26 13:23:02;;;;;;;4.45;1.90;;;;;;;;;;1709609;84;21108;-78
2022/05/26 13:25:31;;;;;;;2.98;1.92;;;;;;;;;;1709584;83;21056;-79
2022/05/26 13:28:04;;;;;;;9.03;2.02;;;;;;;;;;1709450;84;21104;-78
2022/05/26 13:33:19;;;;;;;3.00;1.92;;;;;;;;;;1711475;84;21017;-79
2022/05/26 13:35:48;;;;;;;2.47;2.00;;;;;;;;;;1712269;83;21077;-78
2022/05/26 13:38:21;;;;;;;2.55;1.90;;;;;;;;;;1717316;83;21045;-79
2022/05/26 13:40:47;;;;;;;3.40;2.30;;;;;;;;;;1714424;83;21688;-78
2022/05/26 13:43:13;;;;;;;2.95;1.80;;;;;;;;;;1717743;83;21545;-78
2022/05/26 13:45:41;;;;;;;4.87;2.30;;;;;;;;;;1712252;84;21013;-79
2022/05/26 13:48:09;;;;;;;6.33;1.90;;;;;;;;;;1638198;86;21102;-79
2022/05/26 13:50:38;;;;;;;3.33;1.95;;;;;;;;;;1659139;86;21207;-78
2022/05/26 13:53:06;;;;;;;2.20;1.98;;;;;;;;;;1668160;86;21062;-78
2022/05/26 13:55:32;;;;;;;3.47;2.08;;;;;;;;;;1682146;85;21560;-79
2022/05/26 13:57:58;;;;;;;2.72;2.30;;;;;;;;;;1676961;85;21107;-78
2022/05/26 14:00:31;;;;;;;5.90;2.20;;;;;;;;;;1674301;85;21608;-79
2022/05/26 14:02:57;;;;;;;;;;;;;;;;;;1675984;84;21104;-77
2022/05/26 14:05:25;;;;;;;3.52;2.12;;;;;;;;;;1673879;85;20103;-77
2022/05/26 14:08:01;;;;;;;2.77;2.30;;;;;;;;;;1655807;86;21033;-78
2022/05/26 14:10:32;;;;;;;4.92;2.45;;;;;;;;;;1658207;86;21092;-77
2022/05/26 14:13:03;;;;;;;2.60;2.17;;;;;;;;;;1657169;86;21077;-77
2022/05/26 14:15:42;;;;;;;3.50;2.20;;;;;;;;;;1673987;86;21076;-77
2022/05/26 14:18:09;;;;;;;3.30;2.30;;;;;;;;;;1674287;86;21082;-77
2022/05/26 14:20:36;;;;;;;4.42;2.30;;;;;;;;;;1667005;86;21073;-77
2022/05/26 14:23:02;;;;;;;6.33;2.33;;;;;;;;;;1673532;86;21088;-77
2022/05/26 14:25:28;;;;;;;3.65;2.42;;;;;;;;;;1673855;86;21045;-77
2022/05/26 14:28:01;;;;;;;4.65;2.50;;;;;;;;;;1673919;85;21687;-77
2022/05/26 14:30:29;;;;;;;3.72;2.42;;;;;;;;;;1674131;86;21085;-77
2022/05/26 14:32:57;;;;;;;3.33;2.30;;;;;;;;;;1674162;86;21100;-77
2022/05/26 14:35:24;;;;;;;4.00;2.67;;;;;;;;;;1673612;85;21072;-78
2022/05/26 14:37:50;;;;;;;3.98;2.60;;;;;;;;;;1710659;84;21032;-77
2022/05/26 14:40:18;;;;;;;3.33;2.55;;;;;;;;;;1705593;84;21032;-77
2022/05/26 14:42:44;;;;;;;4.25;2.60;;;;;;;;;;1706232;84;22118;-77
2022/05/26 14:45:12;;;;;;;3.15;2.40;;;;;;;;;;1678099;85;21044;-78
2022/05/26 14:47:39;;;;;;;3.35;2.52;;;;;;;;;;1680656;84;21057;-77
2022/05/26 14:50:07;;;;;;;2.98;2.20;;;;;;;;;;1678412;85;21089;-79
2022/05/26 14:52:34;;;;;;;3.67;3.25;;;;;;;;;;1678301;85;21037;-76
2022/05/26 14:57:44;;;;;;;4.62;2.90;;;;;;;;;;1704437;84;21017;-75
2022/05/26 15:00:13;;;;;;;4.53;2.83;;;;;;;;;;1704152;84;21049;-78
2022/05/26 15:02:39;;;;;;;3.52;2.47;;;;;;;;;;1704231;83;21081;-78
2022/05/26 15:05:09;;;;;;;4.60;2.70;;;;;;;;;;1704506;84;21028;-78
2022/05/26 15:07:37;;;;;;;3.35;2.35;;;;;;;;;;1705376;83;21081;-77
2022/05/26 15:10:04;;;;;;;3.67;2.80;;;;;;;;;;1716809;83;20977;-78
2022/05/26 15:12:34;;;;;;;3.92;2.42;;;;;;;;;;1712024;84;21032;-77
2022/05/26 15:15:01;;;;;;;4.97;2.70;;;;;;;;;;1701235;82;21043;-76
2022/05/26 15:17:27;;;;;;;3.70;2.65;;;;;;;;;;1684176;85;21598;-76
2022/05/26 15:19:54;;;;;;;5.35;2.70;;;;;;;;;;1708400;84;20977;-77
2022/05/26 15:22:21;;;;;;;5.17;2.80;;;;;;;;;;1711931;83;21076;-77
2022/05/26 15:24:47;;;;;;;3.42;2.60;;;;;;;;;;1712243;83;21167;-78
2022/05/26 15:27:15;;;;;;;3.27;2.70;;;;;;;;;;1707545;83;21147;-78
2022/05/26 15:29:41;;;;;;;4.45;2.72;;;;;;;;;;1704920;84;21037;-77
2022/05/26 15:32:08;;;;;;;3.90;2.70;;;;;;;;;;1705203;84;21006;-77
2022/05/26 15:34:35;;;;;;;3.95;2.60;;;;;;;;;;1705240;84;21033;-77
2022/05/26 15:37:02;;;;;;;6.42;2.98;;;;;;;;;;1711894;82;21563;-77
2022/05/26 15:39:28;;;;;;;3.10;2.50;;;;;;;;;;1716787;83;21024;-77
2022/05/26 15:41:54;;;;;;;3.22;2.45;;;;;;;;;;1714519;84;21041;-77
2022/05/26 15:44:23;;;;;;;3.33;2.85;;;;;;;;;;1716943;83;21076;-78
2022/05/26 15:46:50;;;;;;;3.45;2.55;;;;;;;;;;1718445;83;21080;-78